Time;durP1;ratioP1;P1;durP2;ratioP2;P2;SDS_P1;SDS_P2;PMS_P1;PMS_P2;Temp;Humidity;BMP_temperature;BMP_pressure;BME280_temperature;BME280_humidity;BME280_pressure;Samples;Min_cycle;Max_cycle;Signal;HPM_P1;HPM_P2
2022/02/12 00:00:11;;;;;;;4.150001;2.95;;;;;;;-2.15;100;96715.01;;;;
2022/02/12 00:01:14;;;;;;;4.150001;2.95;;;;;;;-2.15;100;96715.01;;;;
2022/02/12 00:02:14;;;;;;;4.150001;2.95;;;;;;;-2.15;100;96715.01;;;;
2022/02/12 00:03:15;;;;;;;4.150001;2.95;;;;;;;-2.15;100;96715.01;;;;
2022/02/12 00:04:16;;;;;;;8.950001;4.05;;;;;;;-2.33;100;96703.27;;;;
2022/02/12 00:05:17;;;;;;;8.950001;4.05;;;;;;;-2.33;100;96703.27;;;;
2022/02/12 00:06:19;;;;;;;8.950001;4.05;;;;;;;-2.33;100;96703.27;;;;
2022/02/12 00:07:19;;;;;;;8.950001;4.05;;;;;;;-2.33;100;96703.27;;;;
2022/02/12 00:08:19;;;;;;;8.950001;4.05;;;;;;;-2.33;100;96703.27;;;;
2022/02/12 00:09:21;;;;;;;8.950001;4.05;;;;;;;-2.33;100;96703.27;;;;
2022/02/12 00:10:21;;;;;;;8.950001;4.05;;;;;;;-2.33;100;96703.27;;;;
2022/02/12 00:11:23;;;;;;;8.950001;4.05;;;;;;;-2.33;100;96703.27;;;;
2022/02/12 00:12:24;;;;;;;8.950001;4.05;;;;;;;-2.33;100;96703.27;;;;
2022/02/12 00:13:24;;;;;;;8.950001;4.05;;;;;;;-2.33;100;96703.27;;;;
2022/02/12 00:14:25;;;;;;;8.950001;4.05;;;;;;;-2.33;100;96703.27;;;;
2022/02/12 00:15:26;;;;;;;6.55;3.5;;;;;;;-2.49;100;96702.38;;;;
2022/02/12 00:16:26;;;;;;;6.55;3.5;;;;;;;-2.49;100;96702.38;;;;
2022/02/12 00:17:27;;;;;;;6.55;3.5;;;;;;;-2.49;100;96702.38;;;;
2022/02/12 00:18:27;;;;;;;6.55;3.5;;;;;;;-2.49;100;96702.38;;;;
2022/02/12 00:19:28;;;;;;;6.55;3.5;;;;;;;-2.49;100;96702.38;;;;
2022/02/12 00:20:28;;;;;;;6.55;3.5;;;;;;;-2.49;100;96702.38;;;;
2022/02/12 00:21:29;;;;;;;6.55;3.5;;;;;;;-2.49;100;96702.38;;;;
2022/02/12 00:22:29;;;;;;;6.55;3.5;;;;;;;-2.49;100;96702.38;;;;
2022/02/12 00:23:30;;;;;;;6.55;3.5;;;;;;;-2.49;100;96702.38;;;;
2022/02/12 00:24:31;;;;;;;6.55;3.5;;;;;;;-2.49;100;96702.38;;;;
2022/02/12 00:25:31;;;;;;;6.55;3.5;;;;;;;-2.49;100;96702.38;;;;
2022/02/12 00:26:31;;;;;;;6.15;3.6;;;;;;;-2.53;100;96703.11;;;;
2022/02/12 00:27:32;;;;;;;6.15;3.6;;;;;;;-2.53;100;96703.11;;;;
2022/02/12 00:28:33;;;;;;;6.15;3.6;;;;;;;-2.53;100;96703.11;;;;
2022/02/12 00:29:33;;;;;;;6.15;3.6;;;;;;;-2.53;100;96703.11;;;;
2022/02/12 00:30:34;;;;;;;6.15;3.6;;;;;;;-2.53;100;96703.11;;;;
2022/02/12 00:31:34;;;;;;;6.15;3.6;;;;;;;-2.53;100;96703.11;;;;
2022/02/12 00:32:35;;;;;;;6.15;3.6;;;;;;;-2.53;100;96703.11;;;;
2022/02/12 00:33:36;;;;;;;6.15;3.6;;;;;;;-2.53;100;96703.11;;;;
2022/02/12 00:34:36;;;;;;;6.15;3.6;;;;;;;-2.53;100;96703.11;;;;
2022/02/12 00:35:37;;;;;;;6.15;3.6;;;;;;;-2.53;100;96703.11;;;;
2022/02/12 00:36:37;;;;;;;6.500001;4.1;;;;;;;-2.6;100;96687.42;;;;
2022/02/12 00:37:38;;;;;;;6.500001;4.1;;;;;;;-2.6;100;96687.42;;;;
2022/02/12 00:38:38;;;;;;;6.500001;4.1;;;;;;;-2.6;100;96687.42;;;;
2022/02/12 00:39:39;;;;;;;6.500001;4.1;;;;;;;-2.6;100;96687.42;;;;
2022/02/12 00:40:39;;;;;;;6.500001;4.1;;;;;;;-2.6;100;96687.42;;;;
2022/02/12 00:41:40;;;;;;;6.500001;4.1;;;;;;;-2.6;100;96687.42;;;;
2022/02/12 00:42:41;;;;;;;6.500001;4.1;;;;;;;-2.6;100;96687.42;;;;
2022/02/12 00:43:41;;;;;;;6.500001;4.1;;;;;;;-2.6;100;96687.42;;;;
2022/02/12 00:44:42;;;;;;;6.500001;4.1;;;;;;;-2.6;100;96687.42;;;;
2022/02/12 00:45:43;;;;;;;6.500001;4.1;;;;;;;-2.6;100;96687.42;;;;
2022/02/12 00:46:44;;;;;;;6.500001;4.1;;;;;;;-2.6;100;96687.42;;;;
2022/02/12 00:47:44;;;;;;;7.499999;4.1;;;;;;;-2.73;100;96687.08;;;;
2022/02/12 00:48:45;;;;;;;7.499999;4.1;;;;;;;-2.73;100;96687.08;;;;
2022/02/12 00:49:46;;;;;;;7.499999;4.1;;;;;;;-2.73;100;96687.08;;;;
2022/02/12 00:50:46;;;;;;;7.499999;4.1;;;;;;;-2.73;100;96687.08;;;;
2022/02/12 00:51:47;;;;;;;7.499999;4.1;;;;;;;-2.73;100;96687.08;;;;
2022/02/12 00:52:47;;;;;;;7.499999;4.1;;;;;;;-2.73;100;96687.08;;;;
2022/02/12 00:53:48;;;;;;;7.499999;4.1;;;;;;;-2.73;100;96687.08;;;;
2022/02/12 00:54:49;;;;;;;7.499999;4.1;;;;;;;-2.73;100;96687.08;;;;
2022/02/12 00:55:49;;;;;;;7.499999;4.1;;;;;;;-2.73;100;96687.08;;;;
2022/02/12 00:56:50;;;;;;;7.499999;4.1;;;;;;;-2.73;100;96687.08;;;;
2022/02/12 00:57:50;;;;;;;6.45;4;;;;;;;-2.79;100;96667.81;;;;
2022/02/12 00:58:51;;;;;;;6.45;4;;;;;;;-2.79;100;96667.81;;;;
2022/02/12 00:59:52;;;;;;;6.45;4;;;;;;;-2.79;100;96667.81;;;;
2022/02/12 01:00:52;;;;;;;6.45;4;;;;;;;-2.79;100;96667.81;;;;
2022/02/12 01:01:53;;;;;;;6.45;4;;;;;;;-2.79;100;96667.81;;;;
2022/02/12 01:02:54;;;;;;;6.45;4;;;;;;;-2.79;100;96667.81;;;;
2022/02/12 01:03:54;;;;;;;6.45;4;;;;;;;-2.79;100;96667.81;;;;
2022/02/12 01:04:55;;;;;;;6.45;4;;;;;;;-2.79;100;96667.81;;;;
2022/02/12 01:05:57;;;;;;;6.45;4;;;;;;;-2.79;100;96667.81;;;;
2022/02/12 01:06:57;;;;;;;6.45;4;;;;;;;-2.79;100;96667.81;;;;
2022/02/12 01:07:58;;;;;;;6.45;4;;;;;;;-2.79;100;96667.81;;;;
2022/02/12 01:08:58;;;;;;;6.100001;3.9;;;;;;;-2.82;100;96673.74;;;;
2022/02/12 01:10:00;;;;;;;6.100001;3.9;;;;;;;-2.82;100;96673.74;;;;
2022/02/12 01:11:03;;;;;;;6.100001;3.9;;;;;;;-2.82;100;96673.74;;;;
2022/02/12 01:12:04;;;;;;;6.100001;3.9;;;;;;;-2.82;100;96673.74;;;;
2022/02/12 01:13:05;;;;;;;6.100001;3.9;;;;;;;-2.82;100;96673.74;;;;
2022/02/12 01:14:06;;;;;;;6.100001;3.9;;;;;;;-2.82;100;96673.74;;;;
2022/02/12 01:15:06;;;;;;;6.100001;3.9;;;;;;;-2.82;100;96673.74;;;;
2022/02/12 01:16:08;;;;;;;6.100001;3.9;;;;;;;-2.82;100;96673.74;;;;
2022/02/12 01:17:10;;;;;;;6.100001;3.9;;;;;;;-2.82;100;96673.74;;;;
2022/02/12 01:18:11;;;;;;;6.100001;3.9;;;;;;;-2.82;100;96673.74;;;;
2022/02/12 01:19:11;;;;;;;6.05;4.050001;;;;;;;-2.88;100;96674.67;;;;
2022/02/12 01:20:12;;;;;;;6.05;4.050001;;;;;;;-2.88;100;96674.67;;;;
2022/02/12 01:21:13;;;;;;;6.05;4.050001;;;;;;;-2.88;100;96674.67;;;;
2022/02/12 01:22:13;;;;;;;6.05;4.050001;;;;;;;-2.88;100;96674.67;;;;
2022/02/12 01:23:14;;;;;;;6.05;4.050001;;;;;;;-2.88;100;96674.67;;;;
2022/02/12 01:24:14;;;;;;;6.05;4.050001;;;;;;;-2.88;100;96674.67;;;;
2022/02/12 01:25:15;;;;;;;6.05;4.050001;;;;;;;-2.88;100;96674.67;;;;
2022/02/12 01:26:16;;;;;;;6.05;4.050001;;;;;;;-2.88;100;96674.67;;;;
2022/02/12 01:27:17;;;;;;;6.05;4.050001;;;;;;;-2.88;100;96674.67;;;;
2022/02/12 01:28:17;;;;;;;6.05;4.050001;;;;;;;-2.88;100;96674.67;;;;
2022/02/12 01:29:18;;;;;;;6.05;4.050001;;;;;;;-2.88;100;96674.67;;;;
2022/02/12 01:30:19;;;;;;;6.3;4.050001;;;;;;;-3.04;100;96681.69;;;;
2022/02/12 01:31:21;;;;;;;6.3;4.050001;;;;;;;-3.04;100;96681.69;;;;
2022/02/12 01:32:22;;;;;;;6.3;4.050001;;;;;;;-3.04;100;96681.69;;;;
2022/02/12 01:33:23;;;;;;;6.3;4.050001;;;;;;;-3.04;100;96681.69;;;;
2022/02/12 01:34:23;;;;;;;6.3;4.050001;;;;;;;-3.04;100;96681.69;;;;
2022/02/12 01:35:24;;;;;;;6.3;4.050001;;;;;;;-3.04;100;96681.69;;;;
2022/02/12 01:36:25;;;;;;;6.3;4.050001;;;;;;;-3.04;100;96681.69;;;;
2022/02/12 01:37:25;;;;;;;6.3;4.050001;;;;;;;-3.04;100;96681.69;;;;
2022/02/12 01:38:29;;;;;;;6.3;4.050001;;;;;;;-3.04;100;96681.69;;;;
2022/02/12 01:39:29;;;;;;;6.3;4.050001;;;;;;;-3.04;100;96681.69;;;;
2022/02/12 01:40:31;;;;;;;6.5;4.05;;;;;;;-3.15;100;96675.49;;;;
2022/02/12 01:41:31;;;;;;;6.5;4.05;;;;;;;-3.15;100;96675.49;;;;
2022/02/12 01:42:32;;;;;;;6.5;4.05;;;;;;;-3.15;100;96675.49;;;;
2022/02/12 01:43:33;;;;;;;6.5;4.05;;;;;;;-3.15;100;96675.49;;;;
2022/02/12 01:44:33;;;;;;;6.5;4.05;;;;;;;-3.15;100;96675.49;;;;
2022/02/12 01:45:37;;;;;;;6.5;4.05;;;;;;;-3.15;100;96675.49;;;;
2022/02/12 01:46:38;;;;;;;6.5;4.05;;;;;;;-3.15;100;96675.49;;;;
2022/02/12 01:47:39;;;;;;;6.5;4.05;;;;;;;-3.15;100;96675.49;;;;
2022/02/12 01:48:43;;;;;;;6.5;4.05;;;;;;;-3.15;100;96675.49;;;;
2022/02/12 01:49:43;;;;;;;6.5;4.05;;;;;;;-3.15;100;96675.49;;;;
2022/02/12 01:50:44;;;;;;;6.5;4.05;;;;;;;-3.15;100;96675.49;;;;
2022/02/12 01:51:46;;;;;;;7.4;4.25;;;;;;;-3.17;100;96656.75;;;;
2022/02/12 01:52:47;;;;;;;7.4;4.25;;;;;;;-3.17;100;96656.75;;;;
2022/02/12 01:53:48;;;;;;;7.4;4.25;;;;;;;-3.17;100;96656.75;;;;
2022/02/12 01:54:49;;;;;;;7.4;4.25;;;;;;;-3.17;100;96656.75;;;;
2022/02/12 01:55:51;;;;;;;7.4;4.25;;;;;;;-3.17;100;96656.75;;;;
2022/02/12 01:56:52;;;;;;;7.4;4.25;;;;;;;-3.17;100;96656.75;;;;
2022/02/12 01:57:52;;;;;;;7.4;4.25;;;;;;;-3.17;100;96656.75;;;;
2022/02/12 01:58:53;;;;;;;7.4;4.25;;;;;;;-3.17;100;96656.75;;;;
2022/02/12 01:59:53;;;;;;;7.4;4.25;;;;;;;-3.17;100;96656.75;;;;
2022/02/12 02:00:54;;;;;;;7.4;4.25;;;;;;;-3.17;100;96656.75;;;;
2022/02/12 02:01:55;;;;;;;8.75;4.450001;;;;;;;-3.24;100;96640.99;;;;
2022/02/12 02:02:56;;;;;;;8.75;4.450001;;;;;;;-3.24;100;96640.99;;;;
2022/02/12 02:03:56;;;;;;;8.75;4.450001;;;;;;;-3.24;100;96640.99;;;;
2022/02/12 02:04:57;;;;;;;8.75;4.450001;;;;;;;-3.24;100;96640.99;;;;
2022/02/12 02:05:59;;;;;;;8.75;4.450001;;;;;;;-3.24;100;96640.99;;;;
2022/02/12 02:07:00;;;;;;;8.75;4.450001;;;;;;;-3.24;100;96640.99;;;;
2022/02/12 02:08:00;;;;;;;8.75;4.450001;;;;;;;-3.24;100;96640.99;;;;
2022/02/12 02:09:03;;;;;;;8.75;4.450001;;;;;;;-3.24;100;96640.99;;;;
2022/02/12 02:10:04;;;;;;;8.75;4.450001;;;;;;;-3.24;100;96640.99;;;;
2022/02/12 02:11:06;;;;;;;8.75;4.450001;;;;;;;-3.24;100;96640.99;;;;
2022/02/12 02:12:07;;;;;;;8.75;4.450001;;;;;;;-3.24;100;96640.99;;;;
2022/02/12 02:13:09;;;;;;;7.25;4.5;;;;;;;-3.31;100;96635.39;;;;
2022/02/12 02:14:21;;;;;;;7.25;4.5;;;;;;;-3.31;100;96635.39;;;;
2022/02/12 02:15:30;;;;;;;7.25;4.5;;;;;;;-3.31;100;96635.39;;;;
2022/02/12 02:16:31;;;;;;;7.25;4.5;;;;;;;-3.31;100;96635.39;;;;
2022/02/12 02:17:32;;;;;;;7.25;4.5;;;;;;;-3.31;100;96635.39;;;;
2022/02/12 02:18:32;;;;;;;7.25;4.5;;;;;;;-3.31;100;96635.39;;;;
2022/02/12 02:19:33;;;;;;;7.25;4.5;;;;;;;-3.31;100;96635.39;;;;
2022/02/12 02:20:34;;;;;;;7.25;4.5;;;;;;;-3.31;100;96635.39;;;;
2022/02/12 02:21:35;;;;;;;7.25;4.5;;;;;;;-3.31;100;96635.39;;;;
2022/02/12 02:22:37;;;;;;;7.25;4.5;;;;;;;-3.31;100;96635.39;;;;
2022/02/12 02:23:48;;;;;;;6.099999;3.95;;;;;;;-3.38;100;96622.27;;;;
2022/02/12 02:24:49;;;;;;;6.099999;3.95;;;;;;;-3.38;100;96622.27;;;;
2022/02/12 02:25:50;;;;;;;6.099999;3.95;;;;;;;-3.38;100;96622.27;;;;
2022/02/12 02:26:50;;;;;;;6.099999;3.95;;;;;;;-3.38;100;96622.27;;;;
2022/02/12 02:28:01;;;;;;;6.099999;3.95;;;;;;;-3.38;100;96622.27;;;;
2022/02/12 02:29:02;;;;;;;6.099999;3.95;;;;;;;-3.38;100;96622.27;;;;
2022/02/12 02:30:03;;;;;;;6.099999;3.95;;;;;;;-3.38;100;96622.27;;;;
2022/02/12 02:31:05;;;;;;;6.099999;3.95;;;;;;;-3.38;100;96622.27;;;;
2022/02/12 02:32:06;;;;;;;6.099999;3.95;;;;;;;-3.38;100;96622.27;;;;
2022/02/12 02:33:07;;;;;;;6.099999;3.95;;;;;;;-3.38;100;96622.27;;;;
2022/02/12 02:34:08;;;;;;;6.7;3.9;;;;;;;-3.38;100;96620.56;;;;
2022/02/12 02:35:09;;;;;;;6.7;3.9;;;;;;;-3.38;100;96620.56;;;;
2022/02/12 02:36:12;;;;;;;6.7;3.9;;;;;;;-3.38;100;96620.56;;;;
2022/02/12 02:37:12;;;;;;;6.7;3.9;;;;;;;-3.38;100;96620.56;;;;
2022/02/12 02:38:13;;;;;;;6.7;3.9;;;;;;;-3.38;100;96620.56;;;;
2022/02/12 02:39:15;;;;;;;6.7;3.9;;;;;;;-3.38;100;96620.56;;;;
2022/02/12 02:40:15;;;;;;;6.7;3.9;;;;;;;-3.38;100;96620.56;;;;
2022/02/12 02:41:17;;;;;;;6.7;3.9;;;;;;;-3.38;100;96620.56;;;;
2022/02/12 02:42:18;;;;;;;6.7;3.9;;;;;;;-3.38;100;96620.56;;;;
2022/02/12 02:43:18;;;;;;;6.7;3.9;;;;;;;-3.38;100;96620.56;;;;
2022/02/12 02:44:19;;;;;;;6.7;3.9;;;;;;;-3.38;100;96620.56;;;;
2022/02/12 02:45:20;;;;;;;4.85;3.65;;;;;;;-3.48;100;96623.49;;;;
2022/02/12 02:46:20;;;;;;;4.85;3.65;;;;;;;-3.48;100;96623.49;;;;
2022/02/12 02:47:40;;;;;;;4.85;3.65;;;;;;;-3.48;100;96623.49;;;;
2022/02/12 02:48:42;;;;;;;4.85;3.65;;;;;;;-3.48;100;96623.49;;;;
2022/02/12 02:49:42;;;;;;;4.85;3.65;;;;;;;-3.48;100;96623.49;;;;
2022/02/12 02:56:03;;;;;;;6.2;3.9;;;;;;;-3.58;100;96627.34;;;;
2022/02/12 02:57:05;;;;;;;6.2;3.9;;;;;;;-3.58;100;96627.34;;;;
2022/02/12 02:58:06;;;;;;;6.2;3.9;;;;;;;-3.58;100;96627.34;;;;
2022/02/12 02:59:06;;;;;;;6.2;3.9;;;;;;;-3.58;100;96627.34;;;;
2022/02/12 03:00:07;;;;;;;6.2;3.9;;;;;;;-3.58;100;96627.34;;;;
2022/02/12 03:01:08;;;;;;;6.2;3.9;;;;;;;-3.58;100;96627.34;;;;
2022/02/12 03:02:12;;;;;;;6.2;3.9;;;;;;;-3.58;100;96627.34;;;;
2022/02/12 03:03:12;;;;;;;6.2;3.9;;;;;;;-3.58;100;96627.34;;;;
2022/02/12 03:04:13;;;;;;;6.2;3.9;;;;;;;-3.58;100;96627.34;;;;
2022/02/12 03:05:13;;;;;;;6.2;3.9;;;;;;;-3.58;100;96627.34;;;;
2022/02/12 03:06:14;;;;;;;6.9;3.65;;;;;;;-3.67;100;96615.35;;;;
2022/02/12 03:07:16;;;;;;;6.9;3.65;;;;;;;-3.67;100;96615.35;;;;
2022/02/12 03:08:16;;;;;;;6.9;3.65;;;;;;;-3.67;100;96615.35;;;;
2022/02/12 03:09:17;;;;;;;6.9;3.65;;;;;;;-3.67;100;96615.35;;;;
2022/02/12 03:10:17;;;;;;;6.9;3.65;;;;;;;-3.67;100;96615.35;;;;
2022/02/12 03:11:18;;;;;;;6.9;3.65;;;;;;;-3.67;100;96615.35;;;;
2022/02/12 03:12:18;;;;;;;6.9;3.65;;;;;;;-3.67;100;96615.35;;;;
2022/02/12 03:13:19;;;;;;;6.9;3.65;;;;;;;-3.67;100;96615.35;;;;
2022/02/12 03:14:19;;;;;;;6.9;3.65;;;;;;;-3.67;100;96615.35;;;;
2022/02/12 03:15:21;;;;;;;6.9;3.65;;;;;;;-3.67;100;96615.35;;;;
2022/02/12 03:16:21;;;;;;;6.9;3.65;;;;;;;-3.67;100;96615.35;;;;
2022/02/12 03:17:23;;;;;;;6.4;3.8;;;;;;;-3.76;100;96606.74;;;;
2022/02/12 03:18:23;;;;;;;6.4;3.8;;;;;;;-3.76;100;96606.74;;;;
2022/02/12 03:19:24;;;;;;;6.4;3.8;;;;;;;-3.76;100;96606.74;;;;
2022/02/12 03:20:25;;;;;;;6.4;3.8;;;;;;;-3.76;100;96606.74;;;;
2022/02/12 03:21:25;;;;;;;6.4;3.8;;;;;;;-3.76;100;96606.74;;;;
2022/02/12 03:22:26;;;;;;;6.4;3.8;;;;;;;-3.76;100;96606.74;;;;
2022/02/12 03:23:26;;;;;;;6.4;3.8;;;;;;;-3.76;100;96606.74;;;;
2022/02/12 03:24:27;;;;;;;6.4;3.8;;;;;;;-3.76;100;96606.74;;;;
2022/02/12 03:25:27;;;;;;;6.4;3.8;;;;;;;-3.76;100;96606.74;;;;
2022/02/12 03:26:28;;;;;;;6.4;3.8;;;;;;;-3.76;100;96606.74;;;;
2022/02/12 03:27:28;;;;;;;7.200001;3.95;;;;;;;-3.82;100;96602.84;;;;
2022/02/12 03:28:29;;;;;;;7.200001;3.95;;;;;;;-3.82;100;96602.84;;;;
2022/02/12 03:29:29;;;;;;;7.200001;3.95;;;;;;;-3.82;100;96602.84;;;;
2022/02/12 03:30:30;;;;;;;7.200001;3.95;;;;;;;-3.82;100;96602.84;;;;
2022/02/12 03:31:33;;;;;;;7.200001;3.95;;;;;;;-3.82;100;96602.84;;;;
2022/02/12 03:32:33;;;;;;;7.200001;3.95;;;;;;;-3.82;100;96602.84;;;;
2022/02/12 03:33:34;;;;;;;7.200001;3.95;;;;;;;-3.82;100;96602.84;;;;
2022/02/12 03:34:34;;;;;;;7.200001;3.95;;;;;;;-3.82;100;96602.84;;;;
2022/02/12 03:35:35;;;;;;;7.200001;3.95;;;;;;;-3.82;100;96602.84;;;;
2022/02/12 03:36:36;;;;;;;7.200001;3.95;;;;;;;-3.82;100;96602.84;;;;
2022/02/12 03:37:36;;;;;;;7.200001;3.95;;;;;;;-3.82;100;96602.84;;;;
2022/02/12 03:38:39;;;;;;;8.549999;3.85;;;;;;;-3.86;100;96595.22;;;;
2022/02/12 03:39:39;;;;;;;8.549999;3.85;;;;;;;-3.86;100;96595.22;;;;
2022/02/12 03:40:40;;;;;;;8.549999;3.85;;;;;;;-3.86;100;96595.22;;;;
2022/02/12 03:41:43;;;;;;;8.549999;3.85;;;;;;;-3.86;100;96595.22;;;;
2022/02/12 03:42:43;;;;;;;8.549999;3.85;;;;;;;-3.86;100;96595.22;;;;
2022/02/12 03:43:44;;;;;;;8.549999;3.85;;;;;;;-3.86;100;96595.22;;;;
2022/02/12 03:44:45;;;;;;;8.549999;3.85;;;;;;;-3.86;100;96595.22;;;;
2022/02/12 03:45:45;;;;;;;8.549999;3.85;;;;;;;-3.86;100;96595.22;;;;
2022/02/12 03:46:46;;;;;;;8.549999;3.85;;;;;;;-3.86;100;96595.22;;;;
2022/02/12 03:47:46;;;;;;;8.549999;3.85;;;;;;;-3.86;100;96595.22;;;;
2022/02/12 03:48:47;;;;;;;5.299999;3.7;;;;;;;-3.92;100;96584.23;;;;
2022/02/12 03:49:47;;;;;;;5.299999;3.7;;;;;;;-3.92;100;96584.23;;;;
2022/02/12 03:50:48;;;;;;;5.299999;3.7;;;;;;;-3.92;100;96584.23;;;;
2022/02/12 03:51:49;;;;;;;5.299999;3.7;;;;;;;-3.92;100;96584.23;;;;
2022/02/12 03:52:50;;;;;;;5.299999;3.7;;;;;;;-3.92;100;96584.23;;;;
2022/02/12 03:53:50;;;;;;;5.299999;3.7;;;;;;;-3.92;100;96584.23;;;;
2022/02/12 03:54:52;;;;;;;5.299999;3.7;;;;;;;-3.92;100;96584.23;;;;
2022/02/12 03:55:52;;;;;;;5.299999;3.7;;;;;;;-3.92;100;96584.23;;;;
2022/02/12 03:56:53;;;;;;;5.299999;3.7;;;;;;;-3.92;100;96584.23;;;;
2022/02/12 03:57:53;;;;;;;5.299999;3.7;;;;;;;-3.92;100;96584.23;;;;
2022/02/12 03:58:55;;;;;;;5.299999;3.7;;;;;;;-3.92;100;96584.23;;;;
2022/02/12 03:59:55;;;;;;;6.400001;4.05;;;;;;;-4;100;96569.06;;;;
2022/02/12 04:00:56;;;;;;;6.400001;4.05;;;;;;;-4;100;96569.06;;;;
2022/02/12 04:01:57;;;;;;;6.400001;4.05;;;;;;;-4;100;96569.06;;;;
2022/02/12 04:02:57;;;;;;;6.400001;4.05;;;;;;;-4;100;96569.06;;;;
2022/02/12 04:03:58;;;;;;;6.400001;4.05;;;;;;;-4;100;96569.06;;;;
2022/02/12 04:04:58;;;;;;;6.400001;4.05;;;;;;;-4;100;96569.06;;;;
2022/02/12 04:05:59;;;;;;;6.400001;4.05;;;;;;;-4;100;96569.06;;;;
2022/02/12 04:07:00;;;;;;;6.400001;4.05;;;;;;;-4;100;96569.06;;;;
2022/02/12 04:08:01;;;;;;;6.400001;4.05;;;;;;;-4;100;96569.06;;;;
2022/02/12 04:09:02;;;;;;;6.400001;4.05;;;;;;;-4;100;96569.06;;;;
2022/02/12 04:10:03;;;;;;;6.55;4.400001;;;;;;;-4.09;100;96555.25;;;;
2022/02/12 04:11:05;;;;;;;6.55;4.400001;;;;;;;-4.09;100;96555.25;;;;
2022/02/12 04:12:05;;;;;;;6.55;4.400001;;;;;;;-4.09;100;96555.25;;;;
2022/02/12 04:13:07;;;;;;;6.55;4.400001;;;;;;;-4.09;100;96555.25;;;;
2022/02/12 04:14:07;;;;;;;6.55;4.400001;;;;;;;-4.09;100;96555.25;;;;
2022/02/12 04:15:07;;;;;;;6.55;4.400001;;;;;;;-4.09;100;96555.25;;;;
2022/02/12 04:16:09;;;;;;;6.55;4.400001;;;;;;;-4.09;100;96555.25;;;;
2022/02/12 04:17:09;;;;;;;6.55;4.400001;;;;;;;-4.09;100;96555.25;;;;
2022/02/12 04:18:10;;;;;;;6.55;4.400001;;;;;;;-4.09;100;96555.25;;;;
2022/02/12 04:19:11;;;;;;;6.55;4.400001;;;;;;;-4.09;100;96555.25;;;;
2022/02/12 04:20:12;;;;;;;6.55;4.400001;;;;;;;-4.09;100;96555.25;;;;
2022/02/12 04:21:14;;;;;;;6.15;4.400001;;;;;;;-4.12;100;96544.51;;;;
2022/02/12 04:22:15;;;;;;;6.15;4.400001;;;;;;;-4.12;100;96544.51;;;;
2022/02/12 04:23:15;;;;;;;6.15;4.400001;;;;;;;-4.12;100;96544.51;;;;
2022/02/12 04:24:16;;;;;;;6.15;4.400001;;;;;;;-4.12;100;96544.51;;;;
2022/02/12 04:25:16;;;;;;;6.15;4.400001;;;;;;;-4.12;100;96544.51;;;;
2022/02/12 04:26:18;;;;;;;6.15;4.400001;;;;;;;-4.12;100;96544.51;;;;
2022/02/12 04:27:19;;;;;;;6.15;4.400001;;;;;;;-4.12;100;96544.51;;;;
2022/02/12 04:28:19;;;;;;;6.15;4.400001;;;;;;;-4.12;100;96544.51;;;;
2022/02/12 04:29:20;;;;;;;6.15;4.400001;;;;;;;-4.12;100;96544.51;;;;
2022/02/12 04:30:20;;;;;;;6.15;4.400001;;;;;;;-4.12;100;96544.51;;;;
2022/02/12 04:31:23;;;;;;;6.15;4.400001;;;;;;;-4.12;100;96544.51;;;;
2022/02/12 04:32:23;;;;;;;6.85;4.2;;;;;;;-4.15;100;96544.31;;;;
2022/02/12 04:33:24;;;;;;;6.85;4.2;;;;;;;-4.15;100;96544.31;;;;
2022/02/12 04:34:24;;;;;;;6.85;4.2;;;;;;;-4.15;100;96544.31;;;;
2022/02/12 04:35:25;;;;;;;6.85;4.2;;;;;;;-4.15;100;96544.31;;;;
2022/02/12 04:36:25;;;;;;;6.85;4.2;;;;;;;-4.15;100;96544.31;;;;
2022/02/12 04:37:26;;;;;;;6.85;4.2;;;;;;;-4.15;100;96544.31;;;;
2022/02/12 04:38:26;;;;;;;6.85;4.2;;;;;;;-4.15;100;96544.31;;;;
2022/02/12 04:39:27;;;;;;;6.85;4.2;;;;;;;-4.15;100;96544.31;;;;
2022/02/12 04:40:28;;;;;;;6.85;4.2;;;;;;;-4.15;100;96544.31;;;;
2022/02/12 04:41:28;;;;;;;6.85;4.2;;;;;;;-4.15;100;96544.31;;;;
2022/02/12 04:42:29;;;;;;;7.050001;4.3;;;;;;;-4.16;100;96542.64;;;;
2022/02/12 04:43:30;;;;;;;7.050001;4.3;;;;;;;-4.16;100;96542.64;;;;
2022/02/12 04:44:30;;;;;;;7.050001;4.3;;;;;;;-4.16;100;96542.64;;;;
2022/02/12 04:45:31;;;;;;;7.050001;4.3;;;;;;;-4.16;100;96542.64;;;;
2022/02/12 04:46:31;;;;;;;7.050001;4.3;;;;;;;-4.16;100;96542.64;;;;
2022/02/12 04:47:32;;;;;;;7.050001;4.3;;;;;;;-4.16;100;96542.64;;;;
2022/02/12 04:48:33;;;;;;;7.050001;4.3;;;;;;;-4.16;100;96542.64;;;;
2022/02/12 04:49:33;;;;;;;7.050001;4.3;;;;;;;-4.16;100;96542.64;;;;
2022/02/12 04:50:34;;;;;;;7.050001;4.3;;;;;;;-4.16;100;96542.64;;;;
2022/02/12 04:51:35;;;;;;;7.050001;4.3;;;;;;;-4.16;100;96542.64;;;;
2022/02/12 04:52:35;;;;;;;7.050001;4.3;;;;;;;-4.16;100;96542.64;;;;
2022/02/12 04:53:36;;;;;;;8.200001;4.65;;;;;;;-4.18;100;96531.36;;;;
2022/02/12 04:54:37;;;;;;;8.200001;4.65;;;;;;;-4.18;100;96531.36;;;;
2022/02/12 04:55:38;;;;;;;8.200001;4.65;;;;;;;-4.18;100;96531.36;;;;
2022/02/12 04:56:38;;;;;;;8.200001;4.65;;;;;;;-4.18;100;96531.36;;;;
2022/02/12 04:57:39;;;;;;;8.200001;4.65;;;;;;;-4.18;100;96531.36;;;;
2022/02/12 04:58:39;;;;;;;8.200001;4.65;;;;;;;-4.18;100;96531.36;;;;
2022/02/12 04:59:40;;;;;;;8.200001;4.65;;;;;;;-4.18;100;96531.36;;;;
2022/02/12 05:00:41;;;;;;;8.200001;4.65;;;;;;;-4.18;100;96531.36;;;;
2022/02/12 05:01:42;;;;;;;8.200001;4.65;;;;;;;-4.18;100;96531.36;;;;
2022/02/12 05:02:42;;;;;;;8.200001;4.65;;;;;;;-4.18;100;96531.36;;;;
2022/02/12 05:03:43;;;;;;;7.55;4.5;;;;;;;-4.29;100;96514.15;;;;
2022/02/12 05:04:43;;;;;;;7.55;4.5;;;;;;;-4.29;100;96514.15;;;;
2022/02/12 05:05:44;;;;;;;7.55;4.5;;;;;;;-4.29;100;96514.15;;;;
2022/02/12 05:06:44;;;;;;;7.55;4.5;;;;;;;-4.29;100;96514.15;;;;
2022/02/12 05:07:46;;;;;;;7.55;4.5;;;;;;;-4.29;100;96514.15;;;;
2022/02/12 05:08:46;;;;;;;7.55;4.5;;;;;;;-4.29;100;96514.15;;;;
2022/02/12 05:09:47;;;;;;;7.55;4.5;;;;;;;-4.29;100;96514.15;;;;
2022/02/12 05:10:48;;;;;;;7.55;4.5;;;;;;;-4.29;100;96514.15;;;;
2022/02/12 05:11:50;;;;;;;7.55;4.5;;;;;;;-4.29;100;96514.15;;;;
2022/02/12 05:12:51;;;;;;;7.55;4.5;;;;;;;-4.29;100;96514.15;;;;
2022/02/12 05:13:53;;;;;;;7.55;4.5;;;;;;;-4.29;100;96514.15;;;;
2022/02/12 05:14:54;;;;;;;7.750001;5;;;;;;;-4.31;100;96509.05;;;;
2022/02/12 05:15:54;;;;;;;7.750001;5;;;;;;;-4.31;100;96509.05;;;;
2022/02/12 05:16:55;;;;;;;7.750001;5;;;;;;;-4.31;100;96509.05;;;;
2022/02/12 05:17:56;;;;;;;7.750001;5;;;;;;;-4.31;100;96509.05;;;;
2022/02/12 05:18:56;;;;;;;7.750001;5;;;;;;;-4.31;100;96509.05;;;;
2022/02/12 05:19:57;;;;;;;7.750001;5;;;;;;;-4.31;100;96509.05;;;;
2022/02/12 05:20:57;;;;;;;7.750001;5;;;;;;;-4.31;100;96509.05;;;;
2022/02/12 05:21:58;;;;;;;7.750001;5;;;;;;;-4.31;100;96509.05;;;;
2022/02/12 05:22:59;;;;;;;7.750001;5;;;;;;;-4.31;100;96509.05;;;;
2022/02/12 05:24:00;;;;;;;7.750001;5;;;;;;;-4.31;100;96509.05;;;;
2022/02/12 05:25:01;;;;;;;10.1;5.15;;;;;;;-4.32;100;96499.47;;;;
2022/02/12 05:26:02;;;;;;;10.1;5.15;;;;;;;-4.32;100;96499.47;;;;
2022/02/12 05:27:02;;;;;;;10.1;5.15;;;;;;;-4.32;100;96499.47;;;;
2022/02/12 05:28:03;;;;;;;10.1;5.15;;;;;;;-4.32;100;96499.47;;;;
2022/02/12 05:29:04;;;;;;;10.1;5.15;;;;;;;-4.32;100;96499.47;;;;
2022/02/12 05:30:04;;;;;;;10.1;5.15;;;;;;;-4.32;100;96499.47;;;;
2022/02/12 05:31:06;;;;;;;10.1;5.15;;;;;;;-4.32;100;96499.47;;;;
2022/02/12 05:32:06;;;;;;;10.1;5.15;;;;;;;-4.32;100;96499.47;;;;
2022/02/12 05:33:07;;;;;;;10.1;5.15;;;;;;;-4.32;100;96499.47;;;;
2022/02/12 05:34:08;;;;;;;10.1;5.15;;;;;;;-4.32;100;96499.47;;;;
2022/02/12 05:35:08;;;;;;;10.1;5.15;;;;;;;-4.32;100;96499.47;;;;
2022/02/12 05:36:09;;;;;;;9;4.75;;;;;;;-4.37;100;96495.42;;;;
2022/02/12 05:37:11;;;;;;;9;4.75;;;;;;;-4.37;100;96495.42;;;;
2022/02/12 05:38:12;;;;;;;9;4.75;;;;;;;-4.37;100;96495.42;;;;
2022/02/12 05:39:12;;;;;;;9;4.75;;;;;;;-4.37;100;96495.42;;;;
2022/02/12 05:40:13;;;;;;;9;4.75;;;;;;;-4.37;100;96495.42;;;;
2022/02/12 05:41:13;;;;;;;9;4.75;;;;;;;-4.37;100;96495.42;;;;
2022/02/12 05:42:16;;;;;;;9;4.75;;;;;;;-4.37;100;96495.42;;;;
2022/02/12 05:43:16;;;;;;;9;4.75;;;;;;;-4.37;100;96495.42;;;;
2022/02/12 05:44:17;;;;;;;9;4.75;;;;;;;-4.37;100;96495.42;;;;
2022/02/12 05:45:17;;;;;;;9;4.75;;;;;;;-4.37;100;96495.42;;;;
2022/02/12 05:46:18;;;;;;;7.949999;4.85;;;;;;;-4.43;100;96497.69;;;;
2022/02/12 05:47:18;;;;;;;7.949999;4.85;;;;;;;-4.43;100;96497.69;;;;
2022/02/12 05:48:20;;;;;;;7.949999;4.85;;;;;;;-4.43;100;96497.69;;;;
2022/02/12 05:49:21;;;;;;;7.949999;4.85;;;;;;;-4.43;100;96497.69;;;;
2022/02/12 05:50:23;;;;;;;7.949999;4.85;;;;;;;-4.43;100;96497.69;;;;
2022/02/12 05:51:24;;;;;;;7.949999;4.85;;;;;;;-4.43;100;96497.69;;;;
2022/02/12 05:52:25;;;;;;;7.949999;4.85;;;;;;;-4.43;100;96497.69;;;;
2022/02/12 05:53:25;;;;;;;7.949999;4.85;;;;;;;-4.43;100;96497.69;;;;
2022/02/12 05:54:25;;;;;;;7.949999;4.85;;;;;;;-4.43;100;96497.69;;;;
2022/02/12 05:55:26;;;;;;;7.949999;4.85;;;;;;;-4.43;100;96497.69;;;;
2022/02/12 05:56:26;;;;;;;7.949999;4.85;;;;;;;-4.43;100;96497.69;;;;
2022/02/12 05:57:27;;;;;;;7.1;4.85;;;;;;;-4.48;100;96500.27;;;;
2022/02/12 05:58:27;;;;;;;7.1;4.85;;;;;;;-4.48;100;96500.27;;;;
2022/02/12 05:59:28;;;;;;;7.1;4.85;;;;;;;-4.48;100;96500.27;;;;
2022/02/12 06:00:29;;;;;;;7.1;4.85;;;;;;;-4.48;100;96500.27;;;;
2022/02/12 06:01:29;;;;;;;7.1;4.85;;;;;;;-4.48;100;96500.27;;;;
2022/02/12 06:02:30;;;;;;;7.1;4.85;;;;;;;-4.48;100;96500.27;;;;
2022/02/12 06:03:30;;;;;;;7.1;4.85;;;;;;;-4.48;100;96500.27;;;;
2022/02/12 06:04:32;;;;;;;7.1;4.85;;;;;;;-4.48;100;96500.27;;;;
2022/02/12 06:05:33;;;;;;;7.1;4.85;;;;;;;-4.48;100;96500.27;;;;
2022/02/12 06:06:34;;;;;;;7.1;4.85;;;;;;;-4.48;100;96500.27;;;;
2022/02/12 06:07:35;;;;;;;7.1;4.85;;;;;;;-4.48;100;96500.27;;;;
2022/02/12 06:08:35;;;;;;;8.000001;4.7;;;;;;;-4.54;100;96492.81;;;;
2022/02/12 06:09:36;;;;;;;8.000001;4.7;;;;;;;-4.54;100;96492.81;;;;